Time;durP1;ratioP1;P1;durP2;ratioP2;P2;SDS_P1;SDS_P2;PMS_P1;PMS_P2;Temp;Humidity;BMP_temperature;BMP_pressure;BME280_temperature;BME280_humidity;BME280_pressure;Samples;Min_cycle;Max_cycle;Signal;HPM_P1;HPM_P2
2023/05/03 00:00:31;;;;;;;0.10;0.10;;;9.00;99.90;;;;;;5013803;28;20037;-63
2023/05/03 00:02:57;;;;;;;0.10;0.10;;;9.10;99.90;;;;;;5015615;28;20072;-63
2023/05/03 00:05:25;;;;;;;0.10;0.10;;;9.10;99.90;;;;;;5027928;28;20080;-63
2023/05/03 00:07:51;;;;;;;0.30;0.30;;;9.10;99.90;;;;;;5011014;28;20505;-63
2023/05/03 00:10:16;;;;;;;0.10;0.10;;;9.20;99.90;;;;;;5010168;28;20042;-63
2023/05/03 00:12:43;;;;;;;0.08;0.08;;;9.20;99.90;;;;;;5009166;28;20544;-63
2023/05/03 00:15:09;;;;;;;0.00;0.00;;;9.30;99.90;;;;;;5016588;28;20528;-63
2023/05/03 00:17:36;;;;;;;0.10;0.10;;;9.20;99.90;;;;;;5006344;28;20571;-63
2023/05/03 00:20:06;;;;;;;0.00;0.00;;;9.10;99.90;;;;;;5008761;28;20046;-63
2023/05/03 00:22:31;;;;;;;0.20;0.20;;;9.10;99.90;;;;;;5015654;28;20032;-63
2023/05/03 00:24:58;;;;;;;0.10;0.10;;;9.20;99.90;;;;;;5028260;28;20107;-63
2023/05/03 00:27:24;;;;;;;0.10;0.10;;;9.10;99.90;;;;;;5019849;28;20422;-64
2023/05/03 00:29:53;;;;;;;0.20;0.20;;;9.20;99.90;;;;;;5010728;28;20050;-64
2023/05/03 00:32:21;;;;;;;0.10;0.10;;;9.20;99.90;;;;;;5014476;28;20038;-64
2023/05/03 00:34:56;;;;;;;0.00;0.00;;;9.20;99.90;;;;;;5009829;28;20505;-64
2023/05/03 00:37:22;;;;;;;0.10;0.10;;;9.30;99.90;;;;;;5016721;28;20041;-64
2023/05/03 00:39:48;;;;;;;0.00;0.00;;;9.30;99.90;;;;;;5019382;28;20044;-63
2023/05/03 00:42:13;;;;;;;0.00;0.00;;;9.20;99.90;;;;;;5009017;28;20034;-64
2023/05/03 00:44:39;;;;;;;0.10;0.10;;;9.30;99.90;;;;;;5009790;28;20045;-64
2023/05/03 00:47:05;;;;;;;0.00;0.00;;;9.30;99.90;;;;;;5018890;28;20037;-64
2023/05/03 00:49:32;;;;;;;0.20;0.20;;;9.20;99.90;;;;;;5010799;28;20096;-64
2023/05/03 00:51:58;;;;;;;0.00;0.00;;;9.20;99.90;;;;;;5016138;28;20034;-63
2023/05/03 00:54:27;;;;;;;0.10;0.10;;;9.20;99.90;;;;;;5023293;28;20571;-64
2023/05/03 00:56:54;;;;;;;0.00;0.00;;;9.20;99.90;;;;;;5019863;28;20101;-63
2023/05/03 00:59:19;;;;;;;0.10;0.10;;;9.20;99.90;;;;;;5008355;28;20065;-63
2023/05/03 01:01:50;;;;;;;0.38;0.30;;;9.30;99.90;;;;;;5008688;28;20045;-63
2023/05/03 01:04:16;;;;;;;0.00;0.00;;;9.20;99.90;;;;;;5010546;28;20041;-63
2023/05/03 01:06:53;;;;;;;0.10;0.10;;;9.20;99.90;;;;;;5013167;28;20053;-63
2023/05/03 01:09:36;;;;;;;0.13;0.13;;;9.20;99.90;;;;;;5007748;28;20053;-63
2023/05/03 01:12:11;;;;;;;0.20;0.20;;;9.20;99.90;;;;;;5011305;28;20044;-63
2023/05/03 01:14:48;;;;;;;0.17;0.17;;;9.20;99.90;;;;;;5009726;28;20552;-63
2023/05/03 01:17:16;;;;;;;0.00;0.00;;;9.20;99.90;;;;;;5009234;28;20045;-63
2023/05/03 01:19:50;;;;;;;0.10;0.10;;;9.20;99.90;;;;;;5007335;28;20124;-63
2023/05/03 01:22:46;;;;;;;0.03;0.03;;;9.20;99.90;;;;;;5018898;28;20083;-63
2023/05/03 01:25:14;;;;;;;0.10;0.10;;;9.10;99.90;;;;;;5019733;28;20034;-63
2023/05/03 01:27:41;;;;;;;0.00;0.00;;;9.10;99.90;;;;;;5007075;28;20056;-63
2023/05/03 01:30:11;;;;;;;0.00;0.00;;;9.10;99.90;;;;;;5008227;28;20109;-63
2023/05/03 01:33:24;;;;;;;0.03;0.03;;;9.10;99.90;;;;;;5013969;28;20051;-63
2023/05/03 01:36:01;;;;;;;0.10;0.10;;;9.10;99.90;;;;;;4960080;28;20555;-63
2023/05/03 01:38:32;;;;;;;0.10;0.10;;;9.00;99.90;;;;;;5006924;28;20099;-63
2023/05/03 01:41:01;;;;;;;0.47;0.32;;;8.90;99.90;;;;;;5011400;28;20124;-63
2023/05/03 01:43:30;;;;;;;0.05;0.05;;;8.80;99.90;;;;;;5017492;28;20108;-63
2023/05/03 01:45:56;;;;;;;0.10;0.10;;;8.90;99.90;;;;;;5009434;28;20046;-63
2023/05/03 01:48:22;;;;;;;0.03;0.03;;;8.70;99.90;;;;;;5019224;28;20432;-63
2023/05/03 01:50:47;;;;;;;0.00;0.00;;;8.70;99.90;;;;;;5013872;28;20050;-63
2023/05/03 01:53:13;;;;;;;0.00;0.00;;;8.80;99.90;;;;;;5011192;28;20042;-63
2023/05/03 01:55:39;;;;;;;0.03;0.03;;;8.60;99.90;;;;;;5007144;28;20684;-63
2023/05/03 01:58:05;;;;;;;0.00;0.00;;;8.60;99.90;;;;;;5007986;28;20050;-63
2023/05/03 02:00:31;;;;;;;0.00;0.00;;;8.70;99.90;;;;;;5013955;28;20041;-64
2023/05/03 02:02:57;;;;;;;0.00;0.00;;;8.70;99.90;;;;;;5017516;28;20045;-63
2023/05/03 02:05:22;;;;;;;0.00;0.00;;;8.60;99.90;;;;;;5016244;28;20044;-63
2023/05/03 02:07:48;;;;;;;0.10;0.10;;;8.60;99.90;;;;;;5007029;28;20509;-63
2023/05/03 02:10:14;;;;;;;0.00;0.00;;;8.60;99.90;;;;;;5018654;28;20053;-63
2023/05/03 02:12:41;;;;;;;0.10;0.10;;;8.70;99.90;;;;;;5021219;28;20030;-63
2023/05/03 02:15:07;;;;;;;0.00;0.00;;;8.60;99.90;;;;;;5010938;28;20088;-63
2023/05/03 02:17:33;;;;;;;0.20;0.20;;;8.60;99.90;;;;;;5011385;28;20046;-63
2023/05/03 02:19:58;;;;;;;0.10;0.10;;;8.60;99.90;;;;;;5010665;28;20508;-63
2023/05/03 02:22:24;;;;;;;0.00;0.00;;;8.50;99.90;;;;;;5012676;28;20053;-63
2023/05/03 02:24:49;;;;;;;0.00;0.00;;;8.60;99.90;;;;;;5028968;28;20040;-63
2023/05/03 02:27:15;;;;;;;0.00;0.00;;;8.60;99.90;;;;;;5012089;28;20045;-63
2023/05/03 02:29:41;;;;;;;0.47;0.47;;;8.70;99.90;;;;;;5024494;28;20112;-63
2023/05/03 02:32:06;;;;;;;0.03;0.03;;;8.70;99.90;;;;;;5010832;28;20046;-63
2023/05/03 02:34:32;;;;;;;0.00;0.00;;;8.90;99.90;;;;;;5011026;28;20050;-63
2023/05/03 02:36:58;;;;;;;0.05;0.05;;;8.90;99.90;;;;;;5010406;28;20046;-63
2023/05/03 02:39:23;;;;;;;0.10;0.10;;;9.00;99.90;;;;;;5014462;28;20041;-63
2023/05/03 02:41:49;;;;;;;0.10;0.10;;;9.00;99.90;;;;;;5010708;28;20556;-63
2023/05/03 02:44:15;;;;;;;0.10;0.10;;;9.00;99.90;;;;;;5011750;28;20041;-63
2023/05/03 02:46:41;;;;;;;0.10;0.10;;;9.10;99.90;;;;;;5012536;28;20042;-63
2023/05/03 02:49:09;;;;;;;0.00;0.00;;;9.10;99.90;;;;;;5012392;28;20123;-63
2023/05/03 02:51:35;;;;;;;0.00;0.00;;;9.10;99.90;;;;;;5011627;28;20100;-63
2023/05/03 02:54:01;;;;;;;0.73;0.73;;;9.10;99.90;;;;;;5014750;28;20061;-63
2023/05/03 02:56:27;;;;;;;0.00;0.00;;;9.20;99.90;;;;;;5013332;28;20041;-63
2023/05/03 02:58:53;;;;;;;0.00;0.00;;;9.10;99.90;;;;;;5020147;28;20037;-63
2023/05/03 03:01:19;;;;;;;0.25;0.22;;;9.20;99.90;;;;;;5024512;28;20037;-63
2023/05/03 03:03:45;;;;;;;0.10;0.10;;;9.10;99.90;;;;;;5017431;28;20041;-63
2023/05/03 03:06:11;;;;;;;0.38;0.38;;;9.20;99.90;;;;;;5015465;28;20052;-63
2023/05/03 03:08:36;;;;;;;0.00;0.00;;;9.20;99.90;;;;;;5020188;28;20103;-63
2023/05/03 03:11:03;;;;;;;0.10;0.10;;;9.10;99.90;;;;;;5022165;28;20378;-63
2023/05/03 03:13:29;;;;;;;0.00;0.00;;;9.20;99.90;;;;;;5010361;28;20050;-63
2023/05/03 03:15:54;;;;;;;0.00;0.00;;;9.20;99.90;;;;;;5010996;28;20037;-63
2023/05/03 03:18:20;;;;;;;2.17;1.63;;;9.20;99.90;;;;;;5024104;28;20037;-63
2023/05/03 03:20:45;;;;;;;0.10;0.10;;;9.20;99.90;;;;;;5014205;28;20050;-63
2023/05/03 03:23:11;;;;;;;0.10;0.10;;;9.20;99.90;;;;;;5024288;28;20045;-63
2023/05/03 03:25:37;;;;;;;0.00;0.00;;;9.20;99.90;;;;;;5025407;28;20072;-63
2023/05/03 03:28:03;;;;;;;0.10;0.10;;;9.20;99.90;;;;;;5018829;28;20049;-63
2023/05/03 03:30:29;;;;;;;0.25;0.25;;;9.20;99.90;;;;;;5016181;28;20061;-63
2023/05/03 03:32:54;;;;;;;0.00;0.00;;;9.10;99.90;;;;;;5021149;28;20532;-63
2023/05/03 03:35:20;;;;;;;0.10;0.10;;;9.10;99.90;;;;;;5012000;28;20089;-63
2023/05/03 03:37:46;;;;;;;0.13;0.13;;;9.10;99.90;;;;;;5017705;28;20041;-63
2023/05/03 03:40:12;;;;;;;0.00;0.00;;;9.20;99.90;;;;;;5026896;28;20124;-63
2023/05/03 03:42:38;;;;;;;0.00;0.00;;;9.10;99.90;;;;;;5016396;28;20036;-63
2023/05/03 03:45:04;;;;;;;0.00;0.00;;;9.10;99.90;;;;;;5009708;28;20054;-63
2023/05/03 03:47:30;;;;;;;0.10;0.10;;;9.10;99.90;;;;;;5009013;28;20104;-63
2023/05/03 03:49:55;;;;;;;0.10;0.10;;;9.00;99.90;;;;;;5009681;28;20053;-63
2023/05/03 03:52:21;;;;;;;0.00;0.00;;;9.00;99.90;;;;;;5010231;28;20037;-64
2023/05/03 03:54:46;;;;;;;0.00;0.00;;;9.00;99.90;;;;;;5012103;28;20176;-63
2023/05/03 03:57:12;;;;;;;0.00;0.00;;;8.90;99.90;;;;;;5009999;28;20065;-64
2023/05/03 03:59:37;;;;;;;0.08;0.08;;;8.90;99.90;;;;;;5011066;28;20046;-63
2023/05/03 04:02:03;;;;;;;0.10;0.10;;;8.90;99.90;;;;;;5008748;28;20049;-63
2023/05/03 04:04:30;;;;;;;0.20;0.20;;;8.90;99.90;;;;;;5023013;28;20041;-63
2023/05/03 04:06:56;;;;;;;0.00;0.00;;;8.90;99.90;;;;;;5016600;28;20501;-63
2023/05/03 04:09:21;;;;;;;0.10;0.10;;;8.90;99.90;;;;;;5007162;28;20095;-63
2023/05/03 04:11:47;;;;;;;0.00;0.00;;;8.90;99.90;;;;;;5022078;28;20038;-63
2023/05/03 04:14:12;;;;;;;0.20;0.20;;;8.90;99.90;;;;;;5011749;28;20100;-63
2023/05/03 04:16:38;;;;;;;0.00;0.00;;;9.00;99.90;;;;;;5013166;28;20502;-63
2023/05/03 04:19:03;;;;;;;0.10;0.10;;;8.90;99.90;;;;;;5017701;28;20108;-63
2023/05/03 04:21:29;;;;;;;0.10;0.10;;;8.90;99.90;;;;;;5009572;28;20042;-63
2023/05/03 04:23:54;;;;;;;0.08;0.08;;;8.90;99.90;;;;;;5019021;28;20041;-63
2023/05/03 04:26:23;;;;;;;0.00;0.00;;;8.90;99.90;;;;;;5016479;28;20088;-63
2023/05/03 04:28:50;;;;;;;0.00;0.00;;;8.90;99.90;;;;;;5014966;28;20042;-63
2023/05/03 04:31:15;;;;;;;0.00;0.00;;;8.90;99.90;;;;;;5009965;28;20129;-63
2023/05/03 04:33:41;;;;;;;0.22;0.22;;;8.90;99.90;;;;;;5020115;28;20128;-64
2023/05/03 04:36:08;;;;;;;0.30;0.30;;;8.90;99.90;;;;;;5023943;28;20378;-63
2023/05/03 04:38:34;;;;;;;0.10;0.10;;;8.90;99.90;;;;;;5027694;28;20069;-63
2023/05/03 04:40:59;;;;;;;0.00;0.00;;;8.90;99.90;;;;;;5009734;28;20100;-63
2023/05/03 04:43:25;;;;;;;0.05;0.05;;;8.90;99.90;;;;;;5008307;28;20105;-63
2023/05/03 04:45:52;;;;;;;0.00;0.00;;;9.00;99.90;;;;;;5014914;28;20033;-63
2023/05/03 04:48:18;;;;;;;0.10;0.10;;;9.00;99.90;;;;;;5016490;28;20052;-63
2023/05/03 04:50:44;;;;;;;0.10;0.10;;;9.00;99.90;;;;;;5009156;28;20042;-63
2023/05/03 04:53:09;;;;;;;0.10;0.10;;;9.00;99.90;;;;;;5018541;28;20038;-63
2023/05/03 04:55:35;;;;;;;0.20;0.20;;;9.00;99.90;;;;;;5019710;28;20053;-63
2023/05/03 04:58:00;;;;;;;0.10;0.10;;;9.10;99.90;;;;;;5010256;28;20092;-64
2023/05/03 05:00:26;;;;;;;0.25;0.25;;;9.00;99.90;;;;;;5010666;28;20049;-63
2023/05/03 05:02:52;;;;;;;0.10;0.10;;;9.10;99.90;;;;;;5018069;28;20037;-63
2023/05/03 05:05:17;;;;;;;0.10;0.10;;;9.10;99.90;;;;;;5010649;28;20694;-64
2023/05/03 05:07:43;;;;;;;0.10;0.10;;;9.10;99.90;;;;;;5015230;28;20048;-63
2023/05/03 05:10:09;;;;;;;0.00;0.00;;;9.10;99.90;;;;;;5008836;28;20069;-63
2023/05/03 05:12:34;;;;;;;0.10;0.10;;;9.20;99.90;;;;;;5007376;28;20127;-64
2023/05/03 05:15:00;;;;;;;1.55;0.95;;;9.20;99.90;;;;;;5007988;28;20088;-63
2023/05/03 05:17:26;;;;;;;0.10;0.10;;;9.20;99.90;;;;;;5012130;28;20041;-64
2023/05/03 05:19:52;;;;;;;0.10;0.10;;;9.20;99.90;;;;;;5007151;28;20038;-63
2023/05/03 05:22:18;;;;;;;0.10;0.10;;;9.30;99.90;;;;;;5008052;28;20030;-64
2023/05/03 05:24:44;;;;;;;0.10;0.10;;;9.30;99.90;;;;;;5024302;28;20091;-64
2023/05/03 05:27:10;;;;;;;0.20;0.20;;;9.30;99.90;;;;;;5009826;28;20082;-64
2023/05/03 05:29:35;;;;;;;0.77;0.77;;;9.30;99.90;;;;;;5012934;28;20575;-63
2023/05/03 05:32:02;;;;;;;0.00;0.00;;;9.30;99.90;;;;;;5008381;28;20046;-64
2023/05/03 05:34:28;;;;;;;0.10;0.10;;;9.30;99.90;;;;;;5017647;28;20049;-64
2023/05/03 05:36:54;;;;;;;0.13;0.13;;;9.30;99.90;;;;;;5013341;28;20759;-64
2023/05/03 05:39:22;;;;;;;0.00;0.00;;;9.30;99.90;;;;;;5017516;28;20038;-63
2023/05/03 05:41:47;;;;;;;0.00;0.00;;;9.40;99.90;;;;;;5007875;28;20046;-63
2023/05/03 05:44:13;;;;;;;0.10;0.10;;;9.40;99.90;;;;;;5017240;28;20041;-64
2023/05/03 05:46:39;;;;;;;0.03;0.03;;;9.40;99.90;;;;;;5017596;28;20047;-64
2023/05/03 05:49:05;;;;;;;0.00;0.00;;;9.50;99.90;;;;;;5024134;28;20041;-64
2023/05/03 05:51:30;;;;;;;0.00;0.00;;;9.50;99.90;;;;;;5013463;28;20038;-64
2023/05/03 05:53:57;;;;;;;0.00;0.00;;;9.60;99.90;;;;;;5025873;28;20500;-64
2023/05/03 05:56:23;;;;;;;0.00;0.00;;;9.50;99.90;;;;;;5026941;28;20057;-63
2023/05/03 05:58:48;;;;;;;0.10;0.10;;;9.60;99.90;;;;;;5018874;28;20038;-64
2023/05/03 06:01:14;;;;;;;0.00;0.00;;;9.50;99.90;;;;;;5012200;28;20076;-64
2023/05/03 06:03:39;;;;;;;0.10;0.10;;;9.60;99.90;;;;;;5010804;28;20457;-64
2023/05/03 06:06:05;;;;;;;0.10;0.10;;;9.70;99.90;;;;;;5024745;28;20045;-64
2023/05/03 06:08:31;;;;;;;0.10;0.10;;;9.80;99.90;;;;;;5014190;28;20045;-64
2023/05/03 06:10:57;;;;;;;0.10;0.10;;;9.70;99.90;;;;;;5014881;28;20118;-64
2023/05/03 06:13:23;;;;;;;0.03;0.03;;;9.80;99.90;;;;;;5011569;28;20417;-64
2023/05/03 06:15:49;;;;;;;0.00;0.00;;;9.80;99.90;;;;;;5010409;28;20042;-64
2023/05/03 06:18:15;;;;;;;0.00;0.00;;;9.80;99.90;;;;;;5014005;28;20049;-64
2023/05/03 06:20:41;;;;;;;0.22;0.22;;;9.80;99.90;;;;;;5027366;28;20036;-64
2023/05/03 06:23:06;;;;;;;0.10;0.10;;;9.80;99.90;;;;;;5012034;28;20454;-64
2023/05/03 06:25:32;;;;;;;0.10;0.10;;;9.90;99.90;;;;;;5018083;28;20029;-64
2023/05/03 06:27:58;;;;;;;0.00;0.00;;;9.90;99.90;;;;;;5030652;28;20456;-64
2023/05/03 06:30:24;;;;;;;0.03;0.03;;;10.00;99.90;;;;;;5009912;28;20049;-64
2023/05/03 06:32:50;;;;;;;0.00;0.00;;;10.00;99.90;;;;;;5015789;28;20107;-64
2023/05/03 06:35:18;;;;;;;0.15;0.15;;;10.10;99.90;;;;;;5009180;28;20128;-64
2023/05/03 06:37:44;;;;;;;0.00;0.00;;;10.10;99.90;;;;;;5009737;28;20142;-63
2023/05/03 06:40:10;;;;;;;0.00;0.00;;;10.10;99.90;;;;;;5019623;28;20099;-64
2023/05/03 06:42:35;;;;;;;0.00;0.00;;;10.10;99.90;;;;;;5007583;28;20052;-64
2023/05/03 06:45:01;;;;;;;0.10;0.10;;;10.10;99.90;;;;;;5017085;28;20040;-64
2023/05/03 06:47:27;;;;;;;0.00;0.00;;;10.30;99.90;;;;;;5048025;28;20473;-64
2023/05/03 06:49:52;;;;;;;0.00;0.00;;;10.30;99.90;;;;;;5020224;28;20048;-64
2023/05/03 06:52:18;;;;;;;0.03;0.03;;;10.40;99.90;;;;;;5018503;28;20088;-64
2023/05/03 06:54:43;;;;;;;0.00;0.00;;;10.40;99.90;;;;;;5021675;28;20054;-63
2023/05/03 06:57:09;;;;;;;0.05;0.05;;;10.30;99.90;;;;;;5016624;28;20489;-63
2023/05/03 06:59:35;;;;;;;0.10;0.10;;;10.40;99.90;;;;;;5010250;28;20054;-64
2023/05/03 07:02:00;;;;;;;0.10;0.10;;;10.40;99.90;;;;;;5010688;28;20042;-64
2023/05/03 07:04:26;;;;;;;0.10;0.10;;;10.40;99.90;;;;;;5008638;28;20592;-63
2023/05/03 07:06:51;;;;;;;0.00;0.00;;;10.50;99.90;;;;;;5014024;28;20049;-63
2023/05/03 07:09:17;;;;;;;1.13;1.02;;;10.50;99.90;;;;;;5012770;28;20042;-63
2023/05/03 07:11:48;;;;;;;0.10;0.10;;;10.50;99.90;;;;;;5008490;28;20037;-63
2023/05/03 07:14:14;;;;;;;0.10;0.10;;;10.50;99.90;;;;;;5010573;28;20041;-64
2023/05/03 07:16:43;;;;;;;0.10;0.10;;;10.50;99.90;;;;;;5010855;28;20049;-64
2023/05/03 07:19:08;;;;;;;0.00;0.00;;;10.50;99.90;;;;;;5009069;28;20559;-64
2023/05/03 07:21:34;;;;;;;0.00;0.00;;;10.50;99.90;;;;;;5022752;28;20562;-64
2023/05/03 07:24:00;;;;;;;0.00;0.00;;;10.60;99.90;;;;;;5020282;28;20096;-63
2023/05/03 07:26:26;;;;;;;0.00;0.00;;;10.60;99.90;;;;;;5012154;28;20053;-64
2023/05/03 07:28:52;;;;;;;0.43;0.32;;;10.70;99.90;;;;;;5019897;28;20045;-64
2023/05/03 07:31:19;;;;;;;0.00;0.00;;;10.70;99.90;;;;;;5016779;28;20121;-63
2023/05/03 07:33:45;;;;;;;0.00;0.00;;;10.70;99.90;;;;;;5014659;28;20075;-64
2023/05/03 07:36:10;;;;;;;0.00;0.00;;;10.70;99.90;;;;;;5017765;28;20099;-63
2023/05/03 07:38:36;;;;;;;0.38;0.38;;;10.70;99.90;;;;;;5019481;28;20094;-63
2023/05/03 07:41:02;;;;;;;0.10;0.10;;;10.60;99.90;;;;;;5013156;28;20045;-64
2023/05/03 07:43:28;;;;;;;2.75;0.90;;;10.60;99.90;;;;;;5022480;28;20084;-64
2023/05/03 07:45:54;;;;;;;0.00;0.00;;;10.70;99.90;;;;;;5011793;28;20137;-63
2023/05/03 07:48:20;;;;;;;0.00;0.00;;;10.70;99.90;;;;;;5012782;28;20192;-64
2023/05/03 07:50:45;;;;;;;0.00;0.00;;;10.70;99.90;;;;;;5011468;28;20095;-64
2023/05/03 07:53:11;;;;;;;0.10;0.10;;;10.70;99.90;;;;;;5021305;28;20165;-63
2023/05/03 07:55:37;;;;;;;0.00;0.00;;;10.80;99.90;;;;;;5025315;28;20048;-63
2023/05/03 07:58:03;;;;;;;0.00;0.00;;;10.80;99.90;;;;;;5011195;28;20038;-64
2023/05/03 08:00:29;;;;;;;0.10;0.10;;;10.80;99.90;;;;;;5016722;28;20121;-64
2023/05/03 08:02:55;;;;;;;4.10;1.80;;;10.80;99.90;;;;;;5018286;28;20117;-63
2023/05/03 08:05:22;;;;;;;0.68;0.68;;;10.80;99.90;;;;;;5016403;28;20598;-64
2023/05/03 08:07:48;;;;;;;0.00;0.00;;;10.90;99.90;;;;;;5014584;28;20632;-64
2023/05/03 08:10:14;;;;;;;0.10;0.10;;;10.90;99.90;;;;;;5017665;28;20073;-65
2023/05/03 08:12:40;;;;;;;0.10;0.10;;;10.90;99.90;;;;;;5022517;28;20033;-63
2023/05/03 08:15:06;;;;;;;0.10;0.10;;;10.90;99.90;;;;;;5021072;28;20094;-64
2023/05/03 08:17:39;;;;;;;0.00;0.00;;;10.90;99.90;;;;;;5014828;28;20050;-64
2023/05/03 08:20:06;;;;;;;0.10;0.10;;;10.90;99.90;;;;;;5014787;28;20166;-63
2023/05/03 08:22:32;;;;;;;0.00;0.00;;;10.90;99.90;;;;;;5019169;28;20120;-63
2023/05/03 08:24:59;;;;;;;0.00;0.00;;;10.90;99.90;;;;;;5020052;28;20136;-64
2023/05/03 08:27:27;;;;;;;0.20;0.20;;;10.90;99.90;;;;;;5030837;28;20094;-63
2023/05/03 08:29:53;;;;;;;0.00;0.00;;;10.90;99.90;;;;;;5010486;28;20493;-63
2023/05/03 08:32:19;;;;;;;0.00;0.00;;;10.90;99.90;;;;;;5021355;28;20042;-63
2023/05/03 08:34:45;;;;;;;0.00;0.00;;;10.90;99.90;;;;;;5010940;28;20409;-63
2023/05/03 08:37:10;;;;;;;0.00;0.00;;;10.90;99.90;;;;;;5016104;28;20050;-63
2023/05/03 08:39:36;;;;;;;0.08;0.08;;;10.90;99.90;;;;;;5018874;28;20069;-63
2023/05/03 08:42:06;;;;;;;0.10;0.10;;;10.70;99.90;;;;;;5024479;28;20049;-63
2023/05/03 08:44:36;;;;;;;0.05;0.05;;;10.80;99.90;;;;;;5016329;28;20042;-63
2023/05/03 08:47:06;;;;;;;0.10;0.10;;;10.70;99.90;;;;;;5016940;28;20048;-63
2023/05/03 08:49:36;;;;;;;0.00;0.00;;;10.80;99.90;;;;;;5010775;28;20509;-63
2023/05/03 08:52:05;;;;;;;0.10;0.10;;;10.80;99.90;;;;;;5008736;28;20073;-63
2023/05/03 08:54:30;;;;;;;0.00;0.00;;;10.80;99.90;;;;;;5008007;28;20046;-63
2023/05/03 08:56:56;;;;;;;0.00;0.00;;;10.90;99.90;;;;;;5007571;28;20119;-63
2023/05/03 08:59:23;;;;;;;0.05;0.05;;;10.90;99.90;;;;;;5008665;28;20064;-64
2023/05/03 09:01:49;;;;;;;0.00;0.00;;;11.00;99.90;;;;;;5013852;28;20095;-63
2023/05/03 09:04:16;;;;;;;0.00;0.00;;;11.00;99.90;;;;;;5014073;28;20444;-63
2023/05/03 09:06:41;;;;;;;0.00;0.00;;;11.10;99.90;;;;;;5007749;28;20469;-63
2023/05/03 09:09:07;;;;;;;0.00;0.00;;;11.10;99.90;;;;;;5014390;28;20087;-63
2023/05/03 09:11:34;;;;;;;0.05;0.05;;;11.10;99.90;;;;;;5008494;28;20099;-62
2023/05/03 09:14:12;;;;;;;0.10;0.10;;;10.90;99.90;;;;;;5012680;28;20685;-63
2023/05/03 09:16:39;;;;;;;0.32;0.32;;;11.10;99.90;;;;;;5018459;28;20549;-64
2023/05/03 09:19:11;;;;;;;0.00;0.00;;;11.20;99.90;;;;;;5021544;28;20045;-65
2023/05/03 09:21:41;;;;;;;0.10;0.10;;;11.20;99.90;;;;;;5009472;28;20826;-63
2023/05/03 09:24:15;;;;;;;0.10;0.10;;;11.20;99.90;;;;;;5016937;28;20124;-63
2023/05/03 09:26:41;;;;;;;0.15;0.13;;;11.20;99.90;;;;;;5011803;28;20060;-64
2023/05/03 09:29:08;;;;;;;0.10;0.10;;;11.20;99.90;;;;;;5017152;28;20393;-64
2023/05/03 09:31:35;;;;;;;1.38;0.47;;;11.20;99.90;;;;;;5010229;28;20065;-64
2023/05/03 09:34:03;;;;;;;0.05;0.05;;;11.30;99.90;;;;;;5026384;28;20045;-64
2023/05/03 09:36:45;;;;;;;0.00;0.00;;;11.30;99.90;;;;;;5013599;28;20092;-64
2023/05/03 09:39:18;;;;;;;0.10;0.10;;;11.30;99.90;;;;;;5017236;28;20481;-63
2023/05/03 09:41:45;;;;;;;0.10;0.10;;;11.30;99.90;;;;;;5029280;28;20045;-64
2023/05/03 09:44:11;;;;;;;0.00;0.00;;;11.30;99.90;;;;;;5008163;28;20578;-64
2023/05/03 09:46:38;;;;;;;0.10;0.10;;;11.40;99.90;;;;;;5012804;28;20493;-64
2023/05/03 09:49:04;;;;;;;0.00;0.00;;;11.40;99.90;;;;;;5022320;28;20089;-64
2023/05/03 09:51:33;;;;;;;0.00;0.00;;;11.30;99.90;;;;;;5019327;28;20065;-65
2023/05/03 09:53:59;;;;;;;0.20;0.20;;;11.30;99.90;;;;;;5024950;28;20084;-63
2023/05/03 09:56:25;;;;;;;0.00;0.00;;;11.30;99.90;;;;;;5019261;28;20073;-62
2023/05/03 09:58:53;;;;;;;0.10;0.10;;;11.30;99.90;;;;;;5007797;28;20642;-62
2023/05/03 10:01:23;;;;;;;0.00;0.00;;;11.30;99.90;;;;;;5013923;28;20034;-63
2023/05/03 10:03:50;;;;;;;0.00;0.00;;;11.30;99.90;;;;;;5014500;28;20040;-63
2023/05/03 10:06:22;;;;;;;0.15;0.15;;;11.40;99.90;;;;;;5019960;28;20053;-63
2023/05/03 10:09:09;;;;;;;0.03;0.03;;;11.40;99.90;;;;;;5009768;28;20500;-63
2023/05/03 10:11:35;;;;;;;0.00;0.00;;;11.50;99.90;;;;;;5013352;28;20060;-63
2023/05/03 10:14:03;;;;;;;2.30;0.82;;;11.50;99.90;;;;;;5006887;28;20049;-62
2023/05/03 10:16:35;;;;;;;0.00;0.00;;;11.50;99.90;;;;;;5026062;28;20080;-63
2023/05/03 10:19:12;;;;;;;0.10;0.10;;;11.50;99.90;;;;;;5022537;28;20418;-63
2023/05/03 10:22:08;;;;;;;0.10;0.10;;;11.60;99.90;;;;;;5013969;28;20054;-62
2023/05/03 10:24:58;;;;;;;0.00;0.00;;;11.60;99.90;;;;;;5004332;28;20108;-63
2023/05/03 10:27:25;;;;;;;0.10;0.10;;;11.60;99.90;;;;;;5008246;28;20121;-63
2023/05/03 10:29:51;;;;;;;0.00;0.00;;;11.70;99.90;;;;;;5018708;28;20052;-62
2023/05/03 10:32:33;;;;;;;0.50;0.20;;;11.70;99.90;;;;;;5015591;28;20046;-62
2023/05/03 10:35:16;;;;;;;0.10;0.10;;;11.80;99.90;;;;;;5029248;28;20398;-62
2023/05/03 10:37:44;;;;;;;0.10;0.10;;;11.80;99.90;;;;;;5016582;28;20498;-63
2023/05/03 10:40:17;;;;;;;0.20;0.20;;;11.80;99.90;;;;;;5018409;28;20033;-62
2023/05/03 10:42:51;;;;;;;0.00;0.00;;;11.80;99.90;;;;;;5026715;28;20125;-63
2023/05/03 10:45:27;;;;;;;0.03;0.03;;;11.90;99.90;;;;;;5023706;28;20033;-62
2023/05/03 10:48:11;;;;;;;0.00;0.00;;;11.80;99.90;;;;;;5020019;28;20046;-62
2023/05/03 10:50:41;;;;;;;0.00;0.00;;;12.00;99.90;;;;;;5024209;28;20038;-63
2023/05/03 10:53:07;;;;;;;0.10;0.10;;;12.00;99.90;;;;;;5011198;28;20490;-63
2023/05/03 10:55:33;;;;;;;0.03;0.03;;;12.10;99.90;;;;;;5013351;28;20100;-63
2023/05/03 10:58:00;;;;;;;0.10;0.10;;;12.00;99.90;;;;;;5026375;28;20050;-62
2023/05/03 11:00:36;;;;;;;0.00;0.00;;;12.10;99.90;;;;;;5015753;28;20046;-62
2023/05/03 11:03:11;;;;;;;0.10;0.10;;;12.10;99.90;;;;;;5011758;28;20042;-62
2023/05/03 11:05:37;;;;;;;0.10;0.10;;;12.30;99.90;;;;;;5022150;28;20049;-63
2023/05/03 11:08:11;;;;;;;0.10;0.10;;;12.40;99.90;;;;;;5016836;28;20486;-62
2023/05/03 11:10:37;;;;;;;0.00;0.00;;;12.40;99.90;;;;;;5010845;28;20038;-62
2023/05/03 11:13:03;;;;;;;0.03;0.03;;;12.50;99.90;;;;;;5012105;28;20359;-62
2023/05/03 11:15:29;;;;;;;0.00;0.00;;;12.40;99.90;;;;;;5021078;28;20034;-62
2023/05/03 11:17:55;;;;;;;0.00;0.00;;;12.60;99.90;;;;;;5019533;28;20104;-63
2023/05/03 11:20:21;;;;;;;0.00;0.00;;;12.40;99.90;;;;;;5014829;28;20430;-63
2023/05/03 11:22:47;;;;;;;0.15;0.15;;;12.50;99.90;;;;;;5018644;28;20045;-63
2023/05/03 11:25:14;;;;;;;0.00;0.00;;;12.50;99.90;;;;;;5020969;28;20477;-63
2023/05/03 11:27:43;;;;;;;0.08;0.08;;;12.60;99.90;;;;;;5024444;28;20076;-63
2023/05/03 11:30:09;;;;;;;0.03;0.03;;;12.60;99.90;;;;;;5017459;28;20044;-63
2023/05/03 11:32:35;;;;;;;0.30;0.30;;;12.50;99.90;;;;;;5018299;28;20045;-63
2023/05/03 11:35:04;;;;;;;0.00;0.00;;;12.60;99.90;;;;;;5016425;28;20049;-63
2023/05/03 11:37:33;;;;;;;0.10;0.10;;;12.80;99.90;;;;;;5027043;28;20033;-63
2023/05/03 11:39:59;;;;;;;0.00;0.00;;;12.80;99.90;;;;;;5020615;28;20057;-63
2023/05/03 11:42:26;;;;;;;3.13;1.48;;;12.90;99.90;;;;;;5008935;28;20096;-63
2023/05/03 11:44:53;;;;;;;0.03;0.03;;;12.90;99.90;;;;;;5012007;28;20485;-63
2023/05/03 11:47:18;;;;;;;0.00;0.00;;;12.90;99.90;;;;;;5022703;28;20088;-63
2023/05/03 11:49:55;;;;;;;0.75;0.75;;;13.00;99.90;;;;;;5014256;28;20069;-64
2023/05/03 11:52:25;;;;;;;0.08;0.08;;;13.00;99.90;;;;;;5011143;28;20755;-63
2023/05/03 11:54:51;;;;;;;0.00;0.00;;;13.20;99.90;;;;;;5009640;28;20046;-63
2023/05/03 11:57:17;;;;;;;0.10;0.10;;;13.30;99.90;;;;;;5018709;28;20152;-63
2023/05/03 11:59:43;;;;;;;0.00;0.00;;;13.60;99.90;;;;;;5018876;28;20048;-63
2023/05/03 12:02:12;;;;;;;0.10;0.10;;;14.20;99.90;;;;;;5021013;28;20049;-63
2023/05/03 12:04:42;;;;;;;0.00;0.00;;;14.10;99.90;;;;;;5016576;28;20081;-63
2023/05/03 12:07:09;;;;;;;0.00;0.00;;;14.30;99.90;;;;;;5025627;28;20029;-63
2023/05/03 12:09:36;;;;;;;0.00;0.00;;;14.50;99.90;;;;;;5010071;28;20045;-63
2023/05/03 12:12:02;;;;;;;0.63;0.63;;;14.30;99.90;;;;;;5012842;28;20665;-63
2023/05/03 12:14:28;;;;;;;0.10;0.10;;;14.10;99.90;;;;;;5007671;28;20452;-63
2023/05/03 12:16:54;;;;;;;0.00;0.00;;;14.70;99.90;;;;;;5016098;28;20547;-62
2023/05/03 12:19:28;;;;;;;0.08;0.08;;;15.10;99.90;;;;;;5026795;28;20045;-63
2023/05/03 12:21:54;;;;;;;0.10;0.10;;;14.80;99.90;;;;;;5017954;28;20037;-63
2023/05/03 12:24:21;;;;;;;0.00;0.00;;;14.70;99.90;;;;;;5018522;28;20107;-63
2023/05/03 12:26:47;;;;;;;0.00;0.00;;;14.60;99.90;;;;;;5013784;28;20103;-63
2023/05/03 12:29:14;;;;;;;0.00;0.00;;;14.60;99.90;;;;;;5021547;28;20041;-63
2023/05/03 12:31:40;;;;;;;0.00;0.00;;;14.50;99.90;;;;;;5021705;28;20144;-64
2023/05/03 12:34:06;;;;;;;0.03;0.03;;;15.00;99.90;;;;;;5024013;28;20500;-63
2023/05/03 12:36:32;;;;;;;0.00;0.00;;;15.50;99.90;;;;;;5015084;28;20366;-63
2023/05/03 12:38:59;;;;;;;0.03;0.03;;;15.80;99.90;;;;;;5016349;28;20073;-64
2023/05/03 12:41:26;;;;;;;0.00;0.00;;;16.20;99.90;;;;;;5015876;28;20088;-63
2023/05/03 12:43:52;;;;;;;0.00;0.00;;;16.00;99.90;;;;;;5017368;28;20406;-64
2023/05/03 12:46:18;;;;;;;0.00;0.00;;;15.60;99.90;;;;;;5016539;28;20034;-63
2023/05/03 12:48:44;;;;;;;0.00;0.00;;;15.60;99.90;;;;;;5009910;28;20038;-64
2023/05/03 12:51:10;;;;;;;0.00;0.00;;;15.40;99.90;;;;;;5022892;28;20104;-64
2023/05/03 12:53:35;;;;;;;26.35;1.00;;;15.20;99.90;;;;;;5010897;28;20148;-63